sensor_id;sensor_type;location;lat;lon;timestamp;temperature;humidity
1880;DHT22;49285;49.002;8.390;2024-03-17T00:01:38;11.80;99.90
1880;DHT22;49285;49.002;8.390;2024-03-17T00:04:03;11.70;99.90
1880;DHT22;49285;49.002;8.390;2024-03-17T00:06:30;11.70;99.90
1880;DHT22;49285;49.002;8.390;2024-03-17T00:08:55;11.70;99.90
1880;DHT22;49285;49.002;8.390;2024-03-17T00:11:21;11.70;99.90
1880;DHT22;49285;49.002;8.390;2024-03-17T00:13:47;11.70;99.90
1880;DHT22;49285;49.002;8.390;2024-03-17T00:16:13;11.60;99.90
1880;DHT22;49285;49.002;8.390;2024-03-17T00:18:39;11.60;99.90
1880;DHT22;49285;49.002;8.390;2024-03-17T00:21:05;11.60;99.90
1880;DHT22;49285;49.002;8.390;2024-03-17T00:23:30;11.60;99.90
1880;DHT22;49285;49.002;8.390;2024-03-17T00:25:56;11.60;99.90
1880;DHT22;49285;49.002;8.390;2024-03-17T00:28:21;11.60;99.90
1880;DHT22;49285;49.002;8.390;2024-03-17T00:30:47;11.50;99.90
1880;DHT22;49285;49.002;8.390;2024-03-17T00:33:13;11.50;99.90
1880;DHT22;49285;49.002;8.390;2024-03-17T00:35:39;11.50;99.90
1880;DHT22;49285;49.002;8.390;2024-03-17T00:38:05;11.50;99.90
1880;DHT22;49285;49.002;8.390;2024-03-17T00:40:38;11.50;99.90
1880;DHT22;49285;49.002;8.390;2024-03-17T00:43:06;11.50;99.90
1880;DHT22;49285;49.002;8.390;2024-03-17T00:45:31;11.50;99.90
1880;DHT22;49285;49.002;8.390;2024-03-17T00:47:57;11.50;99.90
1880;DHT22;49285;49.002;8.390;2024-03-17T00:50:23;11.50;99.90
1880;DHT22;49285;49.002;8.390;2024-03-17T00:52:48;11.50;99.90
1880;DHT22;49285;49.002;8.390;2024-03-17T00:55:14;11.40;99.90
1880;DHT22;49285;49.002;8.390;2024-03-17T00:57:40;11.40;99.90
1880;DHT22;49285;49.002;8.390;2024-03-17T01:00:06;11.40;99.90
1880;DHT22;49285;49.002;8.390;2024-03-17T01:02:35;11.40;99.90
1880;DHT22;49285;49.002;8.390;2024-03-17T01:05:01;11.40;99.90
1880;DHT22;49285;49.002;8.390;2024-03-17T01:07:26;11.40;99.90
1880;DHT22;49285;49.002;8.390;2024-03-17T01:09:52;11.30;99.90
1880;DHT22;49285;49.002;8.390;2024-03-17T01:12:18;11.30;99.90
1880;DHT22;49285;49.002;8.390;2024-03-17T01:14:43;11.30;99.90
1880;DHT22;49285;49.002;8.390;2024-03-17T01:17:09;11.30;99.90
1880;DHT22;49285;49.002;8.390;2024-03-17T01:19:34;11.30;99.90
1880;DHT22;49285;49.002;8.390;2024-03-17T01:22:01;11.30;99.90
1880;DHT22;49285;49.002;8.390;2024-03-17T01:24:27;11.20;99.90
1880;DHT22;49285;49.002;8.390;2024-03-17T01:26:57;11.20;99.90
1880;DHT22;49285;49.002;8.390;2024-03-17T01:29:24;11.20;99.90
1880;DHT22;49285;49.002;8.390;2024-03-17T01:31:49;11.20;99.90
1880;DHT22;49285;49.002;8.390;2024-03-17T01:34:16;11.20;99.90
1880;DHT22;49285;49.002;8.390;2024-03-17T01:36:41;11.20;99.90
1880;DHT22;49285;49.002;8.390;2024-03-17T01:39:07;11.20;99.90
1880;DHT22;49285;49.002;8.390;2024-03-17T01:41:33;11.20;99.90
1880;DHT22;49285;49.002;8.390;2024-03-17T01:43:58;11.20;99.90
1880;DHT22;49285;49.002;8.390;2024-03-17T01:46:24;11.20;99.90
1880;DHT22;49285;49.002;8.390;2024-03-17T01:48:50;11.20;99.90
1880;DHT22;49285;49.002;8.390;2024-03-17T01:51:17;11.10;99.90
1880;DHT22;49285;49.002;8.390;2024-03-17T01:53:44;11.20;99.90
1880;DHT22;49285;49.002;8.390;2024-03-17T01:56:10;11.10;99.90
1880;DHT22;49285;49.002;8.390;2024-03-17T01:58:37;11.10;99.90
1880;DHT22;49285;49.002;8.390;2024-03-17T02:01:03;11.10;99.90
1880;DHT22;49285;49.002;8.390;2024-03-17T02:03:30;11.10;99.90
1880;DHT22;49285;49.002;8.390;2024-03-17T02:05:56;11.10;99.90
1880;DHT22;49285;49.002;8.390;2024-03-17T02:08:21;11.10;99.90
1880;DHT22;49285;49.002;8.390;2024-03-17T02:10:55;11.10;99.90
1880;DHT22;49285;49.002;8.390;2024-03-17T02:13:21;11.10;99.90
1880;DHT22;49285;49.002;8.390;2024-03-17T02:15:47;11.10;99.90
1880;DHT22;49285;49.002;8.390;2024-03-17T02:18:13;11.10;99.90
1880;DHT22;49285;49.002;8.390;2024-03-17T02:20:39;11.10;99.90
1880;DHT22;49285;49.002;8.390;2024-03-17T02:23:26;11.00;99.90
1880;DHT22;49285;49.002;8.390;2024-03-17T02:25:52;11.00;99.90
1880;DHT22;49285;49.002;8.390;2024-03-17T02:28:18;11.00;99.90
1880;DHT22;49285;49.002;8.390;2024-03-17T02:30:44;10.90;99.90
1880;DHT22;49285;49.002;8.390;2024-03-17T02:33:10;10.90;99.90
1880;DHT22;49285;49.002;8.390;2024-03-17T02:35:35;10.80;99.90
1880;DHT22;49285;49.002;8.390;2024-03-17T02:38:01;10.80;99.90
1880;DHT22;49285;49.002;8.390;2024-03-17T02:40:27;10.70;99.90
1880;DHT22;49285;49.002;8.390;2024-03-17T02:42:54;10.70;99.90
1880;DHT22;49285;49.002;8.390;2024-03-17T02:45:20;10.70;99.90
1880;DHT22;49285;49.002;8.390;2024-03-17T02:47:46;10.60;99.90
1880;DHT22;49285;49.002;8.390;2024-03-17T02:50:12;10.60;99.90
1880;DHT22;49285;49.002;8.390;2024-03-17T02:52:38;10.50;99.90
1880;DHT22;49285;49.002;8.390;2024-03-17T02:55:04;10.50;99.90
1880;DHT22;49285;49.002;8.390;2024-03-17T02:57:31;10.50;99.90
1880;DHT22;49285;49.002;8.390;2024-03-17T02:59:58;10.40;99.90
1880;DHT22;49285;49.002;8.390;2024-03-17T03:02:23;10.40;99.90
1880;DHT22;49285;49.002;8.390;2024-03-17T03:04:49;10.30;99.90
1880;DHT22;49285;49.002;8.390;2024-03-17T03:07:15;10.30;99.90
1880;DHT22;49285;49.002;8.390;2024-03-17T03:09:40;10.30;99.90
1880;DHT22;49285;49.002;8.390;2024-03-17T03:12:06;10.30;99.90
1880;DHT22;49285;49.002;8.390;2024-03-17T03:14:33;10.20;99.90
1880;DHT22;49285;49.002;8.390;2024-03-17T03:16:59;10.20;99.90
1880;DHT22;49285;49.002;8.390;2024-03-17T03:19:26;10.20;99.90
1880;DHT22;49285;49.002;8.390;2024-03-17T03:21:52;10.20;99.90
1880;DHT22;49285;49.002;8.390;2024-03-17T03:24:18;10.20;99.90
1880;DHT22;49285;49.002;8.390;2024-03-17T03:26:43;10.20;99.90
1880;DHT22;49285;49.002;8.390;2024-03-17T03:29:10;10.20;99.90
1880;DHT22;49285;49.002;8.390;2024-03-17T03:31:36;10.20;99.90
1880;DHT22;49285;49.002;8.390;2024-03-17T03:34:01;10.20;99.90
1880;DHT22;49285;49.002;8.390;2024-03-17T03:36:28;10.20;99.90
1880;DHT22;49285;49.002;8.390;2024-03-17T03:38:55;10.20;99.90
1880;DHT22;49285;49.002;8.390;2024-03-17T03:41:23;10.20;99.90
1880;DHT22;49285;49.002;8.390;2024-03-17T03:43:49;10.20;99.90
1880;DHT22;49285;49.002;8.390;2024-03-17T03:46:15;10.20;99.90
1880;DHT22;49285;49.002;8.390;2024-03-17T03:48:40;10.20;99.90
1880;DHT22;49285;49.002;8.390;2024-03-17T03:51:09;10.20;99.90
1880;DHT22;49285;49.002;8.390;2024-03-17T03:53:36;10.20;99.90
1880;DHT22;49285;49.002;8.390;2024-03-17T03:56:06;10.20;99.90
1880;DHT22;49285;49.002;8.390;2024-03-17T03:58:35;10.20;99.90
1880;DHT22;49285;49.002;8.390;2024-03-17T04:01:07;10.20;99.90
1880;DHT22;49285;49.002;8.390;2024-03-17T04:03:34;10.20;99.90
1880;DHT22;49285;49.002;8.390;2024-03-17T04:06:10;10.30;99.90
1880;DHT22;49285;49.002;8.390;2024-03-17T04:08:37;10.20;99.90
1880;DHT22;49285;49.002;8.390;2024-03-17T04:11:03;10.30;99.90
1880;DHT22;49285;49.002;8.390;2024-03-17T04:13:30;10.30;99.90
1880;DHT22;49285;49.002;8.390;2024-03-17T04:15:57;10.30;99.90
1880;DHT22;49285;49.002;8.390;2024-03-17T04:18:24;10.20;99.90
1880;DHT22;49285;49.002;8.390;2024-03-17T04:20:52;10.20;99.90
1880;DHT22;49285;49.002;8.390;2024-03-17T04:23:19;10.20;99.90
1880;DHT22;49285;49.002;8.390;2024-03-17T04:25:45;10.20;99.90
1880;DHT22;49285;49.002;8.390;2024-03-17T04:28:10;10.20;99.90
1880;DHT22;49285;49.002;8.390;2024-03-17T04:30:36;10.10;99.90
1880;DHT22;49285;49.002;8.390;2024-03-17T04:33:02;10.10;99.90
1880;DHT22;49285;49.002;8.390;2024-03-17T04:35:29;10.10;99.90
1880;DHT22;49285;49.002;8.390;2024-03-17T04:37:54;10.00;99.90
1880;DHT22;49285;49.002;8.390;2024-03-17T04:40:22;10.00;99.90
1880;DHT22;49285;49.002;8.390;2024-03-17T04:42:48;10.00;99.90
1880;DHT22;49285;49.002;8.390;2024-03-17T04:45:13;9.90;99.90
1880;DHT22;49285;49.002;8.390;2024-03-17T04:47:39;9.90;99.90
1880;DHT22;49285;49.002;8.390;2024-03-17T04:50:05;9.90;99.90
1880;DHT22;49285;49.002;8.390;2024-03-17T04:52:30;9.90;99.90
1880;DHT22;49285;49.002;8.390;2024-03-17T04:54:56;9.80;99.90
1880;DHT22;49285;49.002;8.390;2024-03-17T04:57:22;9.80;99.90
1880;DHT22;49285;49.002;8.390;2024-03-17T04:59:48;9.70;99.90
1880;DHT22;49285;49.002;8.390;2024-03-17T05:02:13;9.70;99.90
1880;DHT22;49285;49.002;8.390;2024-03-17T05:04:39;9.70;99.90
1880;DHT22;49285;49.002;8.390;2024-03-17T05:07:05;9.60;99.90
1880;DHT22;49285;49.002;8.390;2024-03-17T05:09:30;9.60;99.90
1880;DHT22;49285;49.002;8.390;2024-03-17T05:11:56;9.60;99.90
1880;DHT22;49285;49.002;8.390;2024-03-17T05:14:21;9.50;99.90
1880;DHT22;49285;49.002;8.390;2024-03-17T05:16:50;9.40;99.90
1880;DHT22;49285;49.002;8.390;2024-03-17T05:19:17;9.40;99.90
1880;DHT22;49285;49.002;8.390;2024-03-17T05:21:46;9.40;99.90
1880;DHT22;49285;49.002;8.390;2024-03-17T05:24:11;9.30;99.90
1880;DHT22;49285;49.002;8.390;2024-03-17T05:26:40;9.30;99.90
1880;DHT22;49285;49.002;8.390;2024-03-17T05:29:07;9.30;99.90
1880;DHT22;49285;49.002;8.390;2024-03-17T05:31:33;9.30;99.90
1880;DHT22;49285;49.002;8.390;2024-03-17T05:33:59;9.20;99.90
1880;DHT22;49285;49.002;8.390;2024-03-17T05:36:25;9.20;99.90
1880;DHT22;49285;49.002;8.390;2024-03-17T05:38:51;9.20;99.90
1880;DHT22;49285;49.002;8.390;2024-03-17T05:41:16;9.20;99.90
1880;DHT22;49285;49.002;8.390;2024-03-17T05:43:42;9.20;99.90
1880;DHT22;49285;49.002;8.390;2024-03-17T05:46:10;9.20;99.90
1880;DHT22;49285;49.002;8.390;2024-03-17T05:48:38;9.20;99.90
1880;DHT22;49285;49.002;8.390;2024-03-17T05:51:08;9.20;99.90
1880;DHT22;49285;49.002;8.390;2024-03-17T05:53:34;9.20;99.90
1880;DHT22;49285;49.002;8.390;2024-03-17T05:56:03;9.20;99.90
1880;DHT22;49285;49.002;8.390;2024-03-17T05:58:29;9.20;99.90
1880;DHT22;49285;49.002;8.390;2024-03-17T06:00:55;9.20;99.90
1880;DHT22;49285;49.002;8.390;2024-03-17T06:03:21;9.20;99.90
1880;DHT22;49285;49.002;8.390;2024-03-17T06:05:47;9.20;99.90
1880;DHT22;49285;49.002;8.390;2024-03-17T06:08:14;9.20;99.90
1880;DHT22;49285;49.002;8.390;2024-03-17T06:10:44;9.20;99.90
1880;DHT22;49285;49.002;8.390;2024-03-17T06:13:14;9.20;99.90
1880;DHT22;49285;49.002;8.390;2024-03-17T06:15:45;9.30;99.90
1880;DHT22;49285;49.002;8.390;2024-03-17T06:18:14;9.30;99.90
1880;DHT22;49285;49.002;8.390;2024-03-17T06:20:43;9.30;99.90
1880;DHT22;49285;49.002;8.390;2024-03-17T06:23:09;9.30;99.90
1880;DHT22;49285;49.002;8.390;2024-03-17T06:25:46;9.30;99.90
1880;DHT22;49285;49.002;8.390;2024-03-17T06:28:14;9.30;99.90
1880;DHT22;49285;49.002;8.390;2024-03-17T06:30:44;9.40;99.90
1880;DHT22;49285;49.002;8.390;2024-03-17T06:33:15;9.40;99.90
1880;DHT22;49285;49.002;8.390;2024-03-17T06:35:41;9.40;99.90
1880;DHT22;49285;49.002;8.390;2024-03-17T06:38:06;9.40;99.90
1880;DHT22;49285;49.002;8.390;2024-03-17T06:40:35;9.40;99.90
1880;DHT22;49285;49.002;8.390;2024-03-17T06:43:01;9.40;99.90
1880;DHT22;49285;49.002;8.390;2024-03-17T06:45:26;9.40;99.90
1880;DHT22;49285;49.002;8.390;2024-03-17T06:47:52;9.40;99.90
1880;DHT22;49285;49.002;8.390;2024-03-17T06:50:18;9.40;99.90
1880;DHT22;49285;49.002;8.390;2024-03-17T06:52:43;9.40;99.90
1880;DHT22;49285;49.002;8.390;2024-03-17T06:55:09;9.50;99.90
1880;DHT22;49285;49.002;8.390;2024-03-17T06:57:35;9.50;99.90
1880;DHT22;49285;49.002;8.390;2024-03-17T07:00:02;9.50;99.90
1880;DHT22;49285;49.002;8.390;2024-03-17T07:02:31;9.50;99.90
1880;DHT22;49285;49.002;8.390;2024-03-17T07:04:57;9.60;99.90
1880;DHT22;49285;49.002;8.390;2024-03-17T07:07:23;9.60;99.90
1880;DHT22;49285;49.002;8.390;2024-03-17T07:09:51;9.70;99.90
1880;DHT22;49285;49.002;8.390;2024-03-17T07:12:17;9.80;99.90
1880;DHT22;49285;49.002;8.390;2024-03-17T07:14:42;9.80;99.90
1880;DHT22;49285;49.002;8.390;2024-03-17T07:17:08;9.90;99.90
1880;DHT22;49285;49.002;8.390;2024-03-17T07:19:33;10.00;99.90
1880;DHT22;49285;49.002;8.390;2024-03-17T07:22:01;10.10;99.90
1880;DHT22;49285;49.002;8.390;2024-03-17T07:24:27;10.20;99.90
1880;DHT22;49285;49.002;8.390;2024-03-17T07:26:52;10.30;99.90
1880;DHT22;49285;49.002;8.390;2024-03-17T07:29:18;10.40;99.90
1880;DHT22;49285;49.002;8.390;2024-03-17T07:31:44;10.50;99.90
1880;DHT22;49285;49.002;8.390;2024-03-17T07:34:10;10.60;99.90
1880;DHT22;49285;49.002;8.390;2024-03-17T07:36:35;10.70;99.90
1880;DHT22;49285;49.002;8.390;2024-03-17T07:39:01;10.80;99.90
1880;DHT22;49285;49.002;8.390;2024-03-17T07:41:27;10.80;99.90
1880;DHT22;49285;49.002;8.390;2024-03-17T07:43:53;10.90;99.90
1880;DHT22;49285;49.002;8.390;2024-03-17T07:46:19;11.00;99.90
1880;DHT22;49285;49.002;8.390;2024-03-17T07:48:44;11.10;99.90
1880;DHT22;49285;49.002;8.390;2024-03-17T07:51:11;11.10;99.90
1880;DHT22;49285;49.002;8.390;2024-03-17T07:53:38;11.20;99.90
1880;DHT22;49285;49.002;8.390;2024-03-17T07:56:11;11.30;99.90
1880;DHT22;49285;49.002;8.390;2024-03-17T07:58:38;11.40;99.90
1880;DHT22;49285;49.002;8.390;2024-03-17T08:01:13;11.40;99.90
1880;DHT22;49285;49.002;8.390;2024-03-17T08:03:44;11.50;99.90
1880;DHT22;49285;49.002;8.390;2024-03-17T08:06:10;11.60;99.90
1880;DHT22;49285;49.002;8.390;2024-03-17T08:08:37;11.60;99.90
1880;DHT22;49285;49.002;8.390;2024-03-17T08:11:03;11.70;99.90
1880;DHT22;49285;49.002;8.390;2024-03-17T08:13:32;11.80;99.90
1880;DHT22;49285;49.002;8.390;2024-03-17T08:16:05;11.90;99.90
1880;DHT22;49285;49.002;8.390;2024-03-17T08:18:34;11.90;99.90
1880;DHT22;49285;49.002;8.390;2024-03-17T08:21:01;12.00;99.90
1880;DHT22;49285;49.002;8.390;2024-03-17T08:23:27;12.10;99.90
1880;DHT22;49285;49.002;8.390;2024-03-17T08:25:57;12.10;99.90
1880;DHT22;49285;49.002;8.390;2024-03-17T08:28:24;12.20;99.90
1880;DHT22;49285;49.002;8.390;2024-03-17T08:30:56;12.20;99.90
1880;DHT22;49285;49.002;8.390;2024-03-17T08:33:22;12.30;99.90
1880;DHT22;49285;49.002;8.390;2024-03-17T08:36:08;12.30;99.90
1880;DHT22;49285;49.002;8.390;2024-03-17T08:38:34;12.40;99.90
1880;DHT22;49285;49.002;8.390;2024-03-17T08:41:05;12.40;99.90
1880;DHT22;49285;49.002;8.390;2024-03-17T08:43:31;12.50;99.90
1880;DHT22;49285;49.002;8.390;2024-03-17T08:46:02;12.60;99.90
1880;DHT22;49285;49.002;8.390;2024-03-17T08:48:30;12.60;99.90
1880;DHT22;49285;49.002;8.390;2024-03-17T08:50:59;12.60;99.90
1880;DHT22;49285;49.002;8.390;2024-03-17T08:53:25;12.60;99.90
1880;DHT22;49285;49.002;8.390;2024-03-17T08:55:52;12.60;99.90
1880;DHT22;49285;49.002;8.390;2024-03-17T08:58:17;12.70;99.90
1880;DHT22;49285;49.002;8.390;2024-03-17T09:00:43;12.70;99.90
1880;DHT22;49285;49.002;8.390;2024-03-17T09:03:09;12.70;99.90
1880;DHT22;49285;49.002;8.390;2024-03-17T09:05:39;12.70;99.90
1880;DHT22;49285;49.002;8.390;2024-03-17T09:08:06;12.80;99.90
1880;DHT22;49285;49.002;8.390;2024-03-17T09:10:42;12.80;99.90
1880;DHT22;49285;49.002;8.390;2024-03-17T09:13:19;12.90;99.90
1880;DHT22;49285;49.002;8.390;2024-03-17T09:15:58;13.00;99.90
1880;DHT22;49285;49.002;8.390;2024-03-17T09:18:27;13.10;99.90
1880;DHT22;49285;49.002;8.390;2024-03-17T09:23:26;13.30;99.90
1880;DHT22;49285;49.002;8.390;2024-03-17T09:28:22;13.50;99.90
1880;DHT22;49285;49.002;8.390;2024-03-17T09:30:48;13.60;99.90
1880;DHT22;49285;49.002;8.390;2024-03-17T09:33:14;13.70;99.90
1880;DHT22;49285;49.002;8.390;2024-03-17T09:35:40;13.80;99.90
1880;DHT22;49285;49.002;8.390;2024-03-17T09:38:06;13.90;99.90
1880;DHT22;49285;49.002;8.390;2024-03-17T09:40:32;14.00;99.90
1880;DHT22;49285;49.002;8.390;2024-03-17T09:42:57;14.10;99.90
1880;DHT22;49285;49.002;8.390;2024-03-17T09:45:24;14.20;99.90
1880;DHT22;49285;49.002;8.390;2024-03-17T09:47:51;14.30;99.90
1880;DHT22;49285;49.002;8.390;2024-03-17T09:50:16;14.40;99.90
1880;DHT22;49285;49.002;8.390;2024-03-17T09:52:45;14.40;99.90
1880;DHT22;49285;49.002;8.390;2024-03-17T09:55:15;14.40;99.90
1880;DHT22;49285;49.002;8.390;2024-03-17T09:57:42;14.50;99.90
1880;DHT22;49285;49.002;8.390;2024-03-17T10:00:13;14.50;99.90
1880;DHT22;49285;49.002;8.390;2024-03-17T10:02:43;14.60;99.90
1880;DHT22;49285;49.002;8.390;2024-03-17T10:07:45;14.70;99.90
1880;DHT22;49285;49.002;8.390;2024-03-17T10:10:11;14.70;99.90
1880;DHT22;49285;49.002;8.390;2024-03-17T10:12:44;14.80;99.90
1880;DHT22;49285;49.002;8.390;2024-03-17T10:15:14;14.90;99.90
1880;DHT22;49285;49.002;8.390;2024-03-17T10:17:39;14.90;99.90
1880;DHT22;49285;49.002;8.390;2024-03-17T10:20:17;15.00;99.90
1880;DHT22;49285;49.002;8.390;2024-03-17T10:25:27;15.20;99.90
1880;DHT22;49285;49.002;8.390;2024-03-17T10:27:53;15.10;99.90
1880;DHT22;49285;49.002;8.390;2024-03-17T10:30:19;15.10;99.90
1880;DHT22;49285;49.002;8.390;2024-03-17T10:32:52;15.20;99.90
1880;DHT22;49285;49.002;8.390;2024-03-17T10:35:36;15.10;99.90
1880;DHT22;49285;49.002;8.390;2024-03-17T10:38:06;15.20;99.90
1880;DHT22;49285;49.002;8.390;2024-03-17T10:40:32;15.30;99.90
1880;DHT22;49285;49.002;8.390;2024-03-17T10:43:01;15.40;99.90
1880;DHT22;49285;49.002;8.390;2024-03-17T10:45:27;15.50;99.90
1880;DHT22;49285;49.002;8.390;2024-03-17T10:47:59;15.50;99.90
1880;DHT22;49285;49.002;8.390;2024-03-17T10:50:30;15.60;99.90
1880;DHT22;49285;49.002;8.390;2024-03-17T10:53:04;15.80;99.90
1880;DHT22;49285;49.002;8.390;2024-03-17T10:55:43;15.90;99.90
1880;DHT22;49285;49.002;8.390;2024-03-17T10:58:23;16.00;99.90
1880;DHT22;49285;49.002;8.390;2024-03-17T11:00:52;16.10;99.90
1880;DHT22;49285;49.002;8.390;2024-03-17T11:03:19;16.10;99.90
1880;DHT22;49285;49.002;8.390;2024-03-17T11:05:48;16.20;99.90
1880;DHT22;49285;49.002;8.390;2024-03-17T11:08:16;16.30;99.90
1880;DHT22;49285;49.002;8.390;2024-03-17T11:10:49;16.40;99.90
1880;DHT22;49285;49.002;8.390;2024-03-17T11:13:27;16.50;99.90
1880;DHT22;49285;49.002;8.390;2024-03-17T11:15:54;16.60;99.90
1880;DHT22;49285;49.002;8.390;2024-03-17T11:21:01;16.80;99.90
1880;DHT22;49285;49.002;8.390;2024-03-17T11:23:34;16.90;99.90
1880;DHT22;49285;49.002;8.390;2024-03-17T11:26:00;17.00;99.90
1880;DHT22;49285;49.002;8.390;2024-03-17T11:31:32;17.10;99.90
1880;DHT22;49285;49.002;8.390;2024-03-17T11:33:58;17.20;99.90
1880;DHT22;49285;49.002;8.390;2024-03-17T11:39:07;17.40;99.90
1880;DHT22;49285;49.002;8.390;2024-03-17T11:41:53;17.40;99.90
1880;DHT22;49285;49.002;8.390;2024-03-17T11:51:50;17.70;99.90
1880;DHT22;49285;49.002;8.390;2024-03-17T11:54:40;17.70;99.90
1880;DHT22;49285;49.002;8.390;2024-03-17T11:57:08;17.60;99.90
1880;DHT22;49285;49.002;8.390;2024-03-17T11:59:35;17.60;99.90
1880;DHT22;49285;49.002;8.390;2024-03-17T12:02:02;17.60;99.90
1880;DHT22;49285;49.002;8.390;2024-03-17T12:04:28;17.60;99.90
1880;DHT22;49285;49.002;8.390;2024-03-17T12:06:58;17.80;99.90
1880;DHT22;49285;49.002;8.390;2024-03-17T12:09:29;17.80;99.90
1880;DHT22;49285;49.002;8.390;2024-03-17T12:14:31;18.10;99.90
1880;DHT22;49285;49.002;8.390;2024-03-17T12:17:01;18.10;99.90
1880;DHT22;49285;49.002;8.390;2024-03-17T12:19:27;18.30;99.90
1880;DHT22;49285;49.002;8.390;2024-03-17T12:21:55;18.60;99.90
1880;DHT22;49285;49.002;8.390;2024-03-17T12:24:25;19.00;99.90
1880;DHT22;49285;49.002;8.390;2024-03-17T12:26:52;19.00;99.90
1880;DHT22;49285;49.002;8.390;2024-03-17T12:34:50;20.40;99.90
1880;DHT22;49285;49.002;8.390;2024-03-17T12:37:27;20.70;99.90
1880;DHT22;49285;49.002;8.390;2024-03-17T12:40:02;21.50;99.90
1880;DHT22;49285;49.002;8.390;2024-03-17T12:42:29;21.90;99.90
1880;DHT22;49285;49.002;8.390;2024-03-17T12:44:57;22.00;99.90
1880;DHT22;49285;49.002;8.390;2024-03-17T12:47:30;21.90;99.90
1880;DHT22;49285;49.002;8.390;2024-03-17T12:49:59;21.70;99.20
1880;DHT22;49285;49.002;8.390;2024-03-17T12:52:28;21.30;98.60
1880;DHT22;49285;49.002;8.390;2024-03-17T12:57:51;20.20;99.20
1880;DHT22;49285;49.002;8.390;2024-03-17T13:00:35;20.20;99.90
1880;DHT22;49285;49.002;8.390;2024-03-17T13:03:04;20.30;99.90
1880;DHT22;49285;49.002;8.390;2024-03-17T13:05:31;20.50;99.90
1880;DHT22;49285;49.002;8.390;2024-03-17T13:07:57;20.40;99.40
1880;DHT22;49285;49.002;8.390;2024-03-17T13:10:27;20.40;99.60
1880;DHT22;49285;49.002;8.390;2024-03-17T13:13:04;20.40;99.50
1880;DHT22;49285;49.002;8.390;2024-03-17T13:15:33;20.40;99.20
1880;DHT22;49285;49.002;8.390;2024-03-17T13:18:01;20.20;98.90
1880;DHT22;49285;49.002;8.390;2024-03-17T13:20:27;20.10;99.10
1880;DHT22;49285;49.002;8.390;2024-03-17T13:22:53;19.80;98.30
1880;DHT22;49285;49.002;8.390;2024-03-17T13:25:23;20.10;98.90
1880;DHT22;49285;49.002;8.390;2024-03-17T13:27:51;19.80;98.80
1880;DHT22;49285;49.002;8.390;2024-03-17T13:30:19;19.80;98.80
1880;DHT22;49285;49.002;8.390;2024-03-17T13:32:45;19.80;98.80
1880;DHT22;49285;49.002;8.390;2024-03-17T13:35:21;19.30;98.60
1880;DHT22;49285;49.002;8.390;2024-03-17T13:37:48;19.20;99.70
1880;DHT22;49285;49.002;8.390;2024-03-17T13:40:15;19.20;99.30
1880;DHT22;49285;49.002;8.390;2024-03-17T13:42:52;19.50;99.30
1880;DHT22;49285;49.002;8.390;2024-03-17T13:45:19;19.70;99.90
1880;DHT22;49285;49.002;8.390;2024-03-17T13:48:02;20.30;98.70
1880;DHT22;49285;49.002;8.390;2024-03-17T13:50:31;20.30;98.00
1880;DHT22;49285;49.002;8.390;2024-03-17T13:52:57;19.90;97.80
1880;DHT22;49285;49.002;8.390;2024-03-17T13:55:24;20.00;98.40
1880;DHT22;49285;49.002;8.390;2024-03-17T13:57:54;20.10;97.70
1880;DHT22;49285;49.002;8.390;2024-03-17T14:00:21;20.30;97.90
1880;DHT22;49285;49.002;8.390;2024-03-17T14:02:48;20.40;98.30
1880;DHT22;49285;49.002;8.390;2024-03-17T14:05:16;21.00;98.00
1880;DHT22;49285;49.002;8.390;2024-03-17T14:07:42;21.00;96.40
1880;DHT22;49285;49.002;8.390;2024-03-17T14:10:09;20.70;96.00
1880;DHT22;49285;49.002;8.390;2024-03-17T14:12:36;20.60;96.10
1880;DHT22;49285;49.002;8.390;2024-03-17T14:15:04;20.20;96.50
1880;DHT22;49285;49.002;8.390;2024-03-17T14:17:45;20.10;96.60
1880;DHT22;49285;49.002;8.390;2024-03-17T14:20:12;20.10;96.60
1880;DHT22;49285;49.002;8.390;2024-03-17T14:22:43;19.90;97.20
1880;DHT22;49285;49.002;8.390;2024-03-17T14:25:09;20.20;97.40
1880;DHT22;49285;49.002;8.390;2024-03-17T14:27:37;20.40;97.10
1880;DHT22;49285;49.002;8.390;2024-03-17T14:30:03;20.50;97.10
1880;DHT22;49285;49.002;8.390;2024-03-17T14:32:30;20.80;97.10
1880;DHT22;49285;49.002;8.390;2024-03-17T14:34:55;21.10;96.90
1880;DHT22;49285;49.002;8.390;2024-03-17T14:37:21;20.80;96.40
1880;DHT22;49285;49.002;8.390;2024-03-17T14:39:48;20.80;96.10
1880;DHT22;49285;49.002;8.390;2024-03-17T14:42:13;20.80;96.90
1880;DHT22;49285;49.002;8.390;2024-03-17T14:44:39;21.00;96.60
1880;DHT22;49285;49.002;8.390;2024-03-17T14:47:05;21.00;96.40
1880;DHT22;49285;49.002;8.390;2024-03-17T14:49:32;20.90;96.50
1880;DHT22;49285;49.002;8.390;2024-03-17T14:51:57;20.90;96.30
1880;DHT22;49285;49.002;8.390;2024-03-17T14:54:23;21.00;96.40
1880;DHT22;49285;49.002;8.390;2024-03-17T14:56:49;20.90;95.10
1880;DHT22;49285;49.002;8.390;2024-03-17T14:59:14;20.70;95.10
1880;DHT22;49285;49.002;8.390;2024-03-17T15:01:44;20.40;94.80
1880;DHT22;49285;49.002;8.390;2024-03-17T15:04:10;20.30;94.60
1880;DHT22;49285;49.002;8.390;2024-03-17T15:06:36;20.00;95.00
1880;DHT22;49285;49.002;8.390;2024-03-17T15:09:02;19.70;95.80
1880;DHT22;49285;49.002;8.390;2024-03-17T15:11:28;19.10;96.10
1880;DHT22;49285;49.002;8.390;2024-03-17T15:13:54;18.80;96.70
1880;DHT22;49285;49.002;8.390;2024-03-17T15:16:19;18.40;97.30
1880;DHT22;49285;49.002;8.390;2024-03-17T15:18:46;18.30;97.90
1880;DHT22;49285;49.002;8.390;2024-03-17T15:21:12;18.20;98.30
1880;DHT22;49285;49.002;8.390;2024-03-17T15:23:38;17.90;98.60
1880;DHT22;49285;49.002;8.390;2024-03-17T15:26:06;17.70;99.10
1880;DHT22;49285;49.002;8.390;2024-03-17T15:28:43;17.50;99.60
1880;DHT22;49285;49.002;8.390;2024-03-17T15:31:10;17.20;99.90
1880;DHT22;49285;49.002;8.390;2024-03-17T15:33:37;17.10;99.90
1880;DHT22;49285;49.002;8.390;2024-03-17T15:36:05;17.00;99.90
1880;DHT22;49285;49.002;8.390;2024-03-17T15:38:32;16.90;99.90
1880;DHT22;49285;49.002;8.390;2024-03-17T15:41:06;16.90;99.90
1880;DHT22;49285;49.002;8.390;2024-03-17T15:43:36;16.80;99.90
1880;DHT22;49285;49.002;8.390;2024-03-17T15:46:08;16.70;99.90
1880;DHT22;49285;49.002;8.390;2024-03-17T15:48:34;16.70;99.90
1880;DHT22;49285;49.002;8.390;2024-03-17T15:51:00;16.70;99.90
1880;DHT22;49285;49.002;8.390;2024-03-17T15:53:26;16.70;99.90
1880;DHT22;49285;49.002;8.390;2024-03-17T15:56:00;16.70;99.90
1880;DHT22;49285;49.002;8.390;2024-03-17T15:58:27;16.70;99.90
1880;DHT22;49285;49.002;8.390;2024-03-17T16:00:54;16.70;99.90
1880;DHT22;49285;49.002;8.390;2024-03-17T16:03:20;16.70;99.90
1880;DHT22;49285;49.002;8.390;2024-03-17T16:05:51;16.70;99.90
1880;DHT22;49285;49.002;8.390;2024-03-17T16:08:18;16.70;99.90
1880;DHT22;49285;49.002;8.390;2024-03-17T16:10:50;16.70;99.90
1880;DHT22;49285;49.002;8.390;2024-03-17T16:13:22;16.70;99.90
1880;DHT22;49285;49.002;8.390;2024-03-17T16:15:51;16.70;99.90
1880;DHT22;49285;49.002;8.390;2024-03-17T16:18:19;16.70;99.90
1880;DHT22;49285;49.002;8.390;2024-03-17T16:23:18;16.50;99.90
1880;DHT22;49285;49.002;8.390;2024-03-17T16:25:48;16.50;99.90
1880;DHT22;49285;49.002;8.390;2024-03-17T16:28:14;16.50;99.90
1880;DHT22;49285;49.002;8.390;2024-03-17T16:30:41;16.50;99.90